UNAAUNKL

Guest
Details From UNAA - ABAKAN
To UNKL - YEMELYANOVO
Flight Number -
Tags generated
Created
Modified
Stats Distance 153 nm / 284 km
Max Altitude 17,000 ft / 5,182 m
Waypoints 5
Social Downloads 3
Likes 0
Share VATSIM

Download

Looking for another format? Having issues loading an existing format? Contact us
Advertisement - Login to hide

Notes

Basic altitude profile: - Ascent Rate: 2500ft/min - Ascent Speed: 250kts - Cruise Altitude: 35000ft - Cruise Speed: 420kts - Descent Rate: 1500ft/min - Descent Speed: 250kts Options: - Use NATs: yes - Use PACOTS: yes - Use low airways: yes - Use high airways: yes

Route

UNAA ABK B951 VEDIN UNKL

ID Type Via Altitude Latitude Longitude Leg Dist Tot Dist Heading (true) Name
O UNAA APT - 0 ft / 0 m 53.74343˚ 91.38578˚ - 0 nm - ABAKAN
ABK VOR - 0 ft / 0 m 53.74556˚ 91.38472˚ 0 nm 0 nm 344° / 344° ABAKAN VOR-DME
KEDRA FIX B951 (AWY-LO) 13,800 ft / 4,206 m 54.38389˚ 91.49972˚ 38 nm 38 nm 6° / 6° -
VEDIN FIX B951 (AWY-LO) 17,000 ft / 5,182 m 54.96722˚ 91.52972˚ 35 nm 73 nm 2° / 2° -
O UNKL APT - 0 ft / 0 m 56.17295˚ 92.49328˚ 79 nm 153 nm 24° / 25° YEMELYANOVO

Altitude Profile

Advertisement - Login to hide

UNAA

Details ICAO UNAA (ABA)
Name ABAKAN
Region Russia
Timezone Asia/Krasnoyarsk (UTC+7.0)
Stats Elevation 831 ft / 253 m (AMSL)
Location 53.743435° 91.385782°
Runways 3
Magnetic Variation 3.974° E

METAR

UNAA 131500Z 00000MPS 4300 2000W BR NSC M13/M15 Q1040 R02/490135 TEMPO 0500 FZFG RMK QFE757

Decode

TAF

TAF UNAA 131400Z 1315/1415 VRB01MPS 3000 BR FU SCT015CB TEMPO 1315/1405 0300 -SHSN FZFG VV002

Decode

Departure Runways

ID Width Length Bearing (true) Bearing (mag) Surface Threshold Offset Overrun Length
02C 263 ft / 80 m 8,117 ft / 2,474 m 24.96° 20.99° Grass 0 ft / 0 m 0 ft / 0 m
02L 92 ft / 28 m 4,243 ft / 1,293 m 24.80° 20.83° Asphalt 0 ft / 0 m 100 ft / 30 m
02R 148 ft / 45 m 10,655 ft / 3,248 m 24.94° 20.97° Asphalt 1,640 ft / 500 m 200 ft / 61 m
20C 263 ft / 80 m 8,117 ft / 2,474 m 204.97° 201.00° Grass 0 ft / 0 m 0 ft / 0 m
20L 148 ft / 45 m 10,655 ft / 3,248 m 204.96° 200.99° Asphalt 820 ft / 250 m 0 ft / 0 m
20R 92 ft / 28 m 4,243 ft / 1,293 m 204.81° 200.84° Asphalt 0 ft / 0 m 100 ft / 30 m

UNKL

Details ICAO UNKL (KJA)
Name YEMELYANOVO
Region Russia
Timezone Asia/Krasnoyarsk (UTC+7.0)
Stats Elevation 942 ft / 287 m (AMSL)
Location 56.172946° 92.493276°
Runways 1
Magnetic Variation 4.123° E

METAR

UNKL 131500Z 26005MPS 1900 R29/P2000N SN OVC016 M12/M15 Q1035 R29/490245 NOSIG RMK QFE750

Decode

TAF

TAF UNKL 131356Z 1315/1415 25003G08MPS 7000 -SN SCT012 TEMPO 1315/1321 28008G14MPS 1500 SN BLSN VV005 TEMPO 1321/1415 27008G14MPS 2500 -SN BLSN BKN010

Decode

Destination Runways

ID Width Length Bearing (true) Bearing (mag) Surface Threshold Offset Overrun Length
11 197 ft / 60 m 12,113 ft / 3,692 m 113.16° 109.04° Asphalt 0 ft / 0 m 235 ft / 72 m
29 197 ft / 60 m 12,113 ft / 3,692 m 293.21° 289.09° Asphalt 0 ft / 0 m 215 ft / 66 m

Popular Alternatives